עמוד ראשי
METAR-TAF:

METAR-TAF

שדות תעופה :

נמל התעופה הבינלאומי עמאן-המלכה עאליה

עמאן-נמל התעופה הבינלאומי עמאן-המלכה עליה, ירדן

קו רוחב: 31-40N, קו אורך: 035-58E, גובה: 721מטר

תצפית מזג אוויר נוכחית

הדו"ח נערך לפני 56דקות, בשעה 22:00 UTC
רוח 8קשר מכיוון מערב/צפון-מערב
טמפרטורת 28 צלסיוס
לחות 40%
לחץ 1011 hPa
ראות: 6000מטר

METAR: OJAI 152200Z 30008KT 6000 NSC 28/13 Q1011 NOSIG

זמן: 01:56 (22:56 UTC)

תחזית

הדו"ח נערך לפני 5 שעות ו 56דקות, בשעה 17:00 UTC
תחזית בתוקף מ 15 ב 18 UTC עד 16 ב 24 UTC
רוח 12קשר מכיוון מערב/צפון-מערב
ראות: 5000מטר
אובך
הסתברות 40% :
זמנית מ -
16 ב 10 UTC עד 16 ב 16 UTC
רוח 16קשר מכיוון מערב/צפון-מערב
ראות: 3000מטר
אבק נושב,

TAF: OJAI 151700Z 1518/1624 29012KT 5000 HZ NSC PROB40 TEMPO 1610/1616 30016KT 3000 BLDU

תצפיות ותחזיות מזג אוויר לגבי יותר מ- 4,000 שדות תעופה ברחבי העולם. דוחות METAR ו- TAF.

התחנות הזמינות מסומנות בנקודות צהובות ואדומות על גבי המפה.

העבר את העכבר לנקודה הצבעונית על מנת לראות את שם התחנה.

לאחר מכן, לחץ כדי לראות את תוכן ואת תחזיות מזג האוויר.

כדי לשנות את המפה: לחץ על הכפתורים הירוקים עם הפלוס השחור כדי להתקרב; על הכפתור הירוק עם המקף כדי להתרחק; או בחיצים הירוקים למפות סמוכות.


METAR-TAF: